sensor_id;sensor_type;location;lat;lon;timestamp;temperature;humidity
17172;DHT22;8701;50.150;8.756;2023-07-30T00:00:43;20.20;99.90
17172;DHT22;8701;50.150;8.756;2023-07-30T00:04:45;20.10;99.90
17172;DHT22;8701;50.150;8.756;2023-07-30T00:08:49;20.10;99.90
17172;DHT22;8701;50.150;8.756;2023-07-30T00:12:51;20.00;99.90
17172;DHT22;8701;50.150;8.756;2023-07-30T00:16:53;20.00;99.90
17172;DHT22;8701;50.150;8.756;2023-07-30T00:20:56;20.00;99.90
17172;DHT22;8701;50.150;8.756;2023-07-30T00:24:59;19.90;99.90
17172;DHT22;8701;50.150;8.756;2023-07-30T00:29:02;19.90;99.90
17172;DHT22;8701;50.150;8.756;2023-07-30T00:33:04;19.90;99.90
17172;DHT22;8701;50.150;8.756;2023-07-30T00:37:06;19.90;99.90
17172;DHT22;8701;50.150;8.756;2023-07-30T00:41:10;19.80;99.90
17172;DHT22;8701;50.150;8.756;2023-07-30T00:45:12;19.80;99.90
17172;DHT22;8701;50.150;8.756;2023-07-30T00:49:14;19.80;99.90
17172;DHT22;8701;50.150;8.756;2023-07-30T00:53:19;19.80;99.90
17172;DHT22;8701;50.150;8.756;2023-07-30T00:57:25;19.70;99.90
17172;DHT22;8701;50.150;8.756;2023-07-30T01:01:28;19.70;99.90
17172;DHT22;8701;50.150;8.756;2023-07-30T01:05:33;19.70;99.90
17172;DHT22;8701;50.150;8.756;2023-07-30T01:09:35;19.70;99.90
17172;DHT22;8701;50.150;8.756;2023-07-30T01:13:39;19.70;99.90
17172;DHT22;8701;50.150;8.756;2023-07-30T01:17:42;19.70;99.90
17172;DHT22;8701;50.150;8.756;2023-07-30T01:21:45;19.70;99.90
17172;DHT22;8701;50.150;8.756;2023-07-30T01:25:49;19.60;99.90
17172;DHT22;8701;50.150;8.756;2023-07-30T01:30:01;19.60;99.90
17172;DHT22;8701;50.150;8.756;2023-07-30T01:34:06;19.60;99.90
17172;DHT22;8701;50.150;8.756;2023-07-30T01:38:10;19.60;99.90
17172;DHT22;8701;50.150;8.756;2023-07-30T01:42:13;19.60;99.90
17172;DHT22;8701;50.150;8.756;2023-07-30T01:46:15;19.70;99.90
17172;DHT22;8701;50.150;8.756;2023-07-30T01:50:17;19.60;99.90
17172;DHT22;8701;50.150;8.756;2023-07-30T01:54:21;19.60;99.90
17172;DHT22;8701;50.150;8.756;2023-07-30T01:58:24;19.70;99.90
17172;DHT22;8701;50.150;8.756;2023-07-30T02:02:26;19.60;99.90
17172;DHT22;8701;50.150;8.756;2023-07-30T02:06:28;19.70;99.90
17172;DHT22;8701;50.150;8.756;2023-07-30T02:10:32;19.50;99.90
17172;DHT22;8701;50.150;8.756;2023-07-30T02:14:34;19.70;99.90
17172;DHT22;8701;50.150;8.756;2023-07-30T02:18:37;19.70;99.90
17172;DHT22;8701;50.150;8.756;2023-07-30T02:22:39;19.70;99.90
17172;DHT22;8701;50.150;8.756;2023-07-30T02:26:42;19.70;99.90
17172;DHT22;8701;50.150;8.756;2023-07-30T02:30:45;19.80;99.90
17172;DHT22;8701;50.150;8.756;2023-07-30T02:34:47;19.60;99.90
17172;DHT22;8701;50.150;8.756;2023-07-30T02:38:49;19.60;99.90
17172;DHT22;8701;50.150;8.756;2023-07-30T02:42:53;19.60;99.90
17172;DHT22;8701;50.150;8.756;2023-07-30T02:46:55;19.80;99.90
17172;DHT22;8701;50.150;8.756;2023-07-30T02:50:58;19.60;99.90
17172;DHT22;8701;50.150;8.756;2023-07-30T02:55:00;19.60;99.90
17172;DHT22;8701;50.150;8.756;2023-07-30T02:59:03;19.60;99.90
17172;DHT22;8701;50.150;8.756;2023-07-30T03:03:06;19.60;99.90
17172;DHT22;8701;50.150;8.756;2023-07-30T03:07:09;19.50;99.90
17172;DHT22;8701;50.150;8.756;2023-07-30T03:11:11;19.50;99.90
17172;DHT22;8701;50.150;8.756;2023-07-30T03:15:16;19.40;99.90
17172;DHT22;8701;50.150;8.756;2023-07-30T03:19:18;19.40;99.90
17172;DHT22;8701;50.150;8.756;2023-07-30T03:23:21;19.40;99.90
17172;DHT22;8701;50.150;8.756;2023-07-30T03:27:23;19.20;99.90
17172;DHT22;8701;50.150;8.756;2023-07-30T03:31:27;19.20;99.90
17172;DHT22;8701;50.150;8.756;2023-07-30T03:35:30;19.30;99.90
17172;DHT22;8701;50.150;8.756;2023-07-30T03:39:32;19.30;99.90
17172;DHT22;8701;50.150;8.756;2023-07-30T03:43:34;19.40;99.90
17172;DHT22;8701;50.150;8.756;2023-07-30T03:47:38;19.40;99.90
17172;DHT22;8701;50.150;8.756;2023-07-30T03:51:41;19.30;99.90
17172;DHT22;8701;50.150;8.756;2023-07-30T03:55:43;19.30;99.90
17172;DHT22;8701;50.150;8.756;2023-07-30T03:59:45;19.20;99.90
17172;DHT22;8701;50.150;8.756;2023-07-30T04:03:49;19.20;99.90
17172;DHT22;8701;50.150;8.756;2023-07-30T04:07:51;19.10;99.90
17172;DHT22;8701;50.150;8.756;2023-07-30T04:11:53;19.10;99.90
17172;DHT22;8701;50.150;8.756;2023-07-30T04:15:55;19.10;99.90
17172;DHT22;8701;50.150;8.756;2023-07-30T04:19:59;19.00;99.90
17172;DHT22;8701;50.150;8.756;2023-07-30T04:24:02;19.00;99.90
17172;DHT22;8701;50.150;8.756;2023-07-30T04:28:04;19.00;99.90
17172;DHT22;8701;50.150;8.756;2023-07-30T04:32:07;19.00;99.90
17172;DHT22;8701;50.150;8.756;2023-07-30T04:36:11;19.00;99.90
17172;DHT22;8701;50.150;8.756;2023-07-30T04:40:13;19.00;99.90
17172;DHT22;8701;50.150;8.756;2023-07-30T04:44:15;18.90;99.90
17172;DHT22;8701;50.150;8.756;2023-07-30T04:48:18;19.00;99.90
17172;DHT22;8701;50.150;8.756;2023-07-30T04:52:21;19.00;99.90
17172;DHT22;8701;50.150;8.756;2023-07-30T04:56:24;19.00;99.90
17172;DHT22;8701;50.150;8.756;2023-07-30T05:00:27;19.00;99.90
17172;DHT22;8701;50.150;8.756;2023-07-30T05:04:30;19.00;99.90
17172;DHT22;8701;50.150;8.756;2023-07-30T05:08:33;19.10;99.90
17172;DHT22;8701;50.150;8.756;2023-07-30T05:12:35;19.00;99.90
17172;DHT22;8701;50.150;8.756;2023-07-30T05:16:38;19.00;99.90
17172;DHT22;8701;50.150;8.756;2023-07-30T05:20:40;19.00;99.90
17172;DHT22;8701;50.150;8.756;2023-07-30T05:24:43;19.00;99.90
17172;DHT22;8701;50.150;8.756;2023-07-30T05:28:46;19.00;99.90
17172;DHT22;8701;50.150;8.756;2023-07-30T05:32:48;19.00;99.90
17172;DHT22;8701;50.150;8.756;2023-07-30T05:36:50;19.00;99.90
17172;DHT22;8701;50.150;8.756;2023-07-30T05:40:53;19.00;99.90
17172;DHT22;8701;50.150;8.756;2023-07-30T05:44:56;19.10;99.90
17172;DHT22;8701;50.150;8.756;2023-07-30T05:48:58;19.10;99.90
17172;DHT22;8701;50.150;8.756;2023-07-30T05:53:00;19.20;99.90
17172;DHT22;8701;50.150;8.756;2023-07-30T05:57:04;19.30;99.90
17172;DHT22;8701;50.150;8.756;2023-07-30T06:01:06;19.30;99.90
17172;DHT22;8701;50.150;8.756;2023-07-30T06:05:09;19.30;99.90
17172;DHT22;8701;50.150;8.756;2023-07-30T06:09:11;19.40;99.90
17172;DHT22;8701;50.150;8.756;2023-07-30T06:13:14;19.50;99.90
17172;DHT22;8701;50.150;8.756;2023-07-30T06:17:17;19.80;99.90
17172;DHT22;8701;50.150;8.756;2023-07-30T06:21:19;19.70;99.90
17172;DHT22;8701;50.150;8.756;2023-07-30T06:25:21;19.70;99.90
17172;DHT22;8701;50.150;8.756;2023-07-30T06:29:25;19.90;99.90
17172;DHT22;8701;50.150;8.756;2023-07-30T06:33:27;20.00;99.90
17172;DHT22;8701;50.150;8.756;2023-07-30T06:37:29;20.10;99.90
17172;DHT22;8701;50.150;8.756;2023-07-30T06:41:31;20.20;99.90
17172;DHT22;8701;50.150;8.756;2023-07-30T06:45:36;20.40;99.90
17172;DHT22;8701;50.150;8.756;2023-07-30T06:49:38;20.50;99.90
17172;DHT22;8701;50.150;8.756;2023-07-30T06:53:40;20.50;99.90
17172;DHT22;8701;50.150;8.756;2023-07-30T06:57:43;20.40;99.90
17172;DHT22;8701;50.150;8.756;2023-07-30T07:01:46;20.40;99.90
17172;DHT22;8701;50.150;8.756;2023-07-30T07:05:53;20.40;99.90
17172;DHT22;8701;50.150;8.756;2023-07-30T07:09:55;20.40;99.90
17172;DHT22;8701;50.150;8.756;2023-07-30T07:13:57;20.50;99.90
17172;DHT22;8701;50.150;8.756;2023-07-30T07:18:01;20.50;99.90
17172;DHT22;8701;50.150;8.756;2023-07-30T07:22:04;20.60;99.90
17172;DHT22;8701;50.150;8.756;2023-07-30T07:26:06;20.70;99.90
17172;DHT22;8701;50.150;8.756;2023-07-30T07:30:10;20.70;99.90
17172;DHT22;8701;50.150;8.756;2023-07-30T07:34:14;20.70;99.90
17172;DHT22;8701;50.150;8.756;2023-07-30T07:38:16;20.70;99.90
17172;DHT22;8701;50.150;8.756;2023-07-30T07:42:19;20.70;99.90
17172;DHT22;8701;50.150;8.756;2023-07-30T07:46:22;20.50;99.90
17172;DHT22;8701;50.150;8.756;2023-07-30T07:50:26;20.40;99.90
17172;DHT22;8701;50.150;8.756;2023-07-30T07:54:28;20.50;99.90
17172;DHT22;8701;50.150;8.756;2023-07-30T07:58:31;20.50;99.90
17172;DHT22;8701;50.150;8.756;2023-07-30T08:02:33;20.40;99.90
17172;DHT22;8701;50.150;8.756;2023-07-30T08:06:37;20.70;99.90
17172;DHT22;8701;50.150;8.756;2023-07-30T08:10:39;20.70;99.90
17172;DHT22;8701;50.150;8.756;2023-07-30T08:14:44;20.80;99.90
17172;DHT22;8701;50.150;8.756;2023-07-30T08:18:46;20.90;99.90
17172;DHT22;8701;50.150;8.756;2023-07-30T08:22:50;21.00;99.90
17172;DHT22;8701;50.150;8.756;2023-07-30T08:26:52;21.10;99.90
17172;DHT22;8701;50.150;8.756;2023-07-30T08:30:59;21.20;99.90
17172;DHT22;8701;50.150;8.756;2023-07-30T08:35:02;21.10;99.90
17172;DHT22;8701;50.150;8.756;2023-07-30T08:39:05;21.40;99.90
17172;DHT22;8701;50.150;8.756;2023-07-30T08:43:08;21.40;99.90
17172;DHT22;8701;50.150;8.756;2023-07-30T08:47:10;22.40;99.90
17172;DHT22;8701;50.150;8.756;2023-07-30T08:51:13;22.90;99.90
17172;DHT22;8701;50.150;8.756;2023-07-30T08:55:18;22.90;99.90
17172;DHT22;8701;50.150;8.756;2023-07-30T08:59:21;22.70;99.90
17172;DHT22;8701;50.150;8.756;2023-07-30T09:03:26;22.90;99.90
17172;DHT22;8701;50.150;8.756;2023-07-30T09:07:29;23.10;99.90
17172;DHT22;8701;50.150;8.756;2023-07-30T09:11:32;22.70;99.90
17172;DHT22;8701;50.150;8.756;2023-07-30T09:15:36;22.30;99.90
17172;DHT22;8701;50.150;8.756;2023-07-30T09:19:39;22.00;99.90
17172;DHT22;8701;50.150;8.756;2023-07-30T09:23:42;21.90;99.90
17172;DHT22;8701;50.150;8.756;2023-07-30T09:27:47;21.90;99.90
17172;DHT22;8701;50.150;8.756;2023-07-30T09:31:52;22.10;99.90
17172;DHT22;8701;50.150;8.756;2023-07-30T09:35:55;22.30;99.90
17172;DHT22;8701;50.150;8.756;2023-07-30T09:39:57;22.10;99.90
17172;DHT22;8701;50.150;8.756;2023-07-30T09:44:02;22.10;99.90
17172;DHT22;8701;50.150;8.756;2023-07-30T09:48:06;21.80;99.90
17172;DHT22;8701;50.150;8.756;2023-07-30T09:52:08;21.60;99.90
17172;DHT22;8701;50.150;8.756;2023-07-30T09:56:12;21.50;99.90
17172;DHT22;8701;50.150;8.756;2023-07-30T10:00:15;20.80;99.90
17172;DHT22;8701;50.150;8.756;2023-07-30T10:04:20;20.30;99.90
17172;DHT22;8701;50.150;8.756;2023-07-30T10:08:25;19.80;99.90
17172;DHT22;8701;50.150;8.756;2023-07-30T10:12:31;19.60;99.90
17172;DHT22;8701;50.150;8.756;2023-07-30T10:16:35;19.60;99.90
17172;DHT22;8701;50.150;8.756;2023-07-30T10:20:38;19.80;99.90
17172;DHT22;8701;50.150;8.756;2023-07-30T10:24:41;19.70;99.90
17172;DHT22;8701;50.150;8.756;2023-07-30T10:29:14;19.70;99.90
17172;DHT22;8701;50.150;8.756;2023-07-30T10:33:17;19.80;99.90
17172;DHT22;8701;50.150;8.756;2023-07-30T10:37:20;19.70;99.90
17172;DHT22;8701;50.150;8.756;2023-07-30T10:41:25;19.70;99.90
17172;DHT22;8701;50.150;8.756;2023-07-30T10:45:27;19.90;99.90
17172;DHT22;8701;50.150;8.756;2023-07-30T10:49:35;20.10;99.90
17172;DHT22;8701;50.150;8.756;2023-07-30T10:53:39;20.40;99.90
17172;DHT22;8701;50.150;8.756;2023-07-30T10:57:44;20.70;99.90
17172;DHT22;8701;50.150;8.756;2023-07-30T11:01:47;22.00;99.90
17172;DHT22;8701;50.150;8.756;2023-07-30T11:05:51;23.50;99.90
17172;DHT22;8701;50.150;8.756;2023-07-30T11:09:59;24.40;99.90
17172;DHT22;8701;50.150;8.756;2023-07-30T11:14:03;24.70;99.90
17172;DHT22;8701;50.150;8.756;2023-07-30T11:18:06;24.30;99.90
17172;DHT22;8701;50.150;8.756;2023-07-30T11:22:09;23.70;99.90
17172;DHT22;8701;50.150;8.756;2023-07-30T11:26:14;22.80;99.90
17172;DHT22;8701;50.150;8.756;2023-07-30T11:30:18;22.50;99.90
17172;DHT22;8701;50.150;8.756;2023-07-30T11:34:21;22.80;99.90
17172;DHT22;8701;50.150;8.756;2023-07-30T11:38:26;22.90;99.90
17172;DHT22;8701;50.150;8.756;2023-07-30T11:42:28;22.90;99.90
17172;DHT22;8701;50.150;8.756;2023-07-30T11:46:32;22.90;99.90
17172;DHT22;8701;50.150;8.756;2023-07-30T11:50:47;22.50;99.90
17172;DHT22;8701;50.150;8.756;2023-07-30T11:55:01;22.40;99.90
17172;DHT22;8701;50.150;8.756;2023-07-30T11:59:06;22.10;99.90
17172;DHT22;8701;50.150;8.756;2023-07-30T12:03:10;22.00;99.90
17172;DHT22;8701;50.150;8.756;2023-07-30T12:07:22;22.00;99.90
17172;DHT22;8701;50.150;8.756;2023-07-30T12:11:26;22.00;99.90
17172;DHT22;8701;50.150;8.756;2023-07-30T12:15:29;22.00;99.90
17172;DHT22;8701;50.150;8.756;2023-07-30T12:19:31;22.20;99.90
17172;DHT22;8701;50.150;8.756;2023-07-30T12:23:34;22.30;99.90
17172;DHT22;8701;50.150;8.756;2023-07-30T12:27:38;22.10;99.90
17172;DHT22;8701;50.150;8.756;2023-07-30T12:31:40;22.10;99.90
17172;DHT22;8701;50.150;8.756;2023-07-30T12:35:42;21.90;99.90
17172;DHT22;8701;50.150;8.756;2023-07-30T12:39:44;21.90;99.90
17172;DHT22;8701;50.150;8.756;2023-07-30T12:43:48;21.70;99.90
17172;DHT22;8701;50.150;8.756;2023-07-30T12:47:50;21.50;99.90
17172;DHT22;8701;50.150;8.756;2023-07-30T12:51:52;21.60;99.90
17172;DHT22;8701;50.150;8.756;2023-07-30T12:55:55;21.70;99.90
17172;DHT22;8701;50.150;8.756;2023-07-30T12:59:58;22.20;99.90
17172;DHT22;8701;50.150;8.756;2023-07-30T13:04:00;22.40;99.90
17172;DHT22;8701;50.150;8.756;2023-07-30T13:08:03;22.80;99.90
17172;DHT22;8701;50.150;8.756;2023-07-30T13:12:06;23.20;99.90
17172;DHT22;8701;50.150;8.756;2023-07-30T13:16:09;23.20;99.90
17172;DHT22;8701;50.150;8.756;2023-07-30T13:20:11;23.20;99.90
17172;DHT22;8701;50.150;8.756;2023-07-30T13:24:14;23.50;99.90
17172;DHT22;8701;50.150;8.756;2023-07-30T13:28:16;23.80;99.90
17172;DHT22;8701;50.150;8.756;2023-07-30T13:32:19;23.40;99.90
17172;DHT22;8701;50.150;8.756;2023-07-30T13:36:22;23.20;99.90
17172;DHT22;8701;50.150;8.756;2023-07-30T13:40:24;23.40;99.90
17172;DHT22;8701;50.150;8.756;2023-07-30T13:44:26;23.40;99.90
17172;DHT22;8701;50.150;8.756;2023-07-30T13:48:30;23.50;99.90
17172;DHT22;8701;50.150;8.756;2023-07-30T13:52:32;23.50;99.90
17172;DHT22;8701;50.150;8.756;2023-07-30T13:56:35;23.30;99.90
17172;DHT22;8701;50.150;8.756;2023-07-30T14:00:41;23.20;99.90
17172;DHT22;8701;50.150;8.756;2023-07-30T14:04:45;23.30;99.90
17172;DHT22;8701;50.150;8.756;2023-07-30T14:08:47;23.70;99.90
17172;DHT22;8701;50.150;8.756;2023-07-30T14:12:49;23.80;99.90
17172;DHT22;8701;50.150;8.756;2023-07-30T14:16:51;23.80;99.90
17172;DHT22;8701;50.150;8.756;2023-07-30T14:20:55;23.90;99.90
17172;DHT22;8701;50.150;8.756;2023-07-30T14:24:57;23.70;99.90
17172;DHT22;8701;50.150;8.756;2023-07-30T14:29:00;23.40;99.90
17172;DHT22;8701;50.150;8.756;2023-07-30T14:33:02;23.00;99.90
17172;DHT22;8701;50.150;8.756;2023-07-30T14:37:06;22.90;99.90
17172;DHT22;8701;50.150;8.756;2023-07-30T14:41:08;22.80;99.90
17172;DHT22;8701;50.150;8.756;2023-07-30T14:45:10;22.70;99.90
17172;DHT22;8701;50.150;8.756;2023-07-30T14:49:12;22.80;99.90
17172;DHT22;8701;50.150;8.756;2023-07-30T14:53:16;23.10;99.90
17172;DHT22;8701;50.150;8.756;2023-07-30T14:57:18;23.50;99.90
17172;DHT22;8701;50.150;8.756;2023-07-30T15:01:22;23.40;99.90
17172;DHT22;8701;50.150;8.756;2023-07-30T15:05:24;23.40;99.90
17172;DHT22;8701;50.150;8.756;2023-07-30T15:09:27;23.30;99.90
17172;DHT22;8701;50.150;8.756;2023-07-30T15:13:34;23.20;99.90
17172;DHT22;8701;50.150;8.756;2023-07-30T15:17:37;23.40;99.90
17172;DHT22;8701;50.150;8.756;2023-07-30T15:21:39;23.40;99.90
17172;DHT22;8701;50.150;8.756;2023-07-30T15:25:42;23.00;99.90
17172;DHT22;8701;50.150;8.756;2023-07-30T15:29:45;23.00;99.90
17172;DHT22;8701;50.150;8.756;2023-07-30T15:33:47;22.80;99.90
17172;DHT22;8701;50.150;8.756;2023-07-30T15:37:49;22.80;99.90
17172;DHT22;8701;50.150;8.756;2023-07-30T15:41:53;22.80;99.90
17172;DHT22;8701;50.150;8.756;2023-07-30T15:45:56;22.60;99.90
17172;DHT22;8701;50.150;8.756;2023-07-30T15:50:03;22.40;99.90
17172;DHT22;8701;50.150;8.756;2023-07-30T15:54:06;22.40;99.90
17172;DHT22;8701;50.150;8.756;2023-07-30T15:58:09;22.40;99.90
17172;DHT22;8701;50.150;8.756;2023-07-30T16:02:11;22.30;99.90
17172;DHT22;8701;50.150;8.756;2023-07-30T16:06:13;22.20;99.90
17172;DHT22;8701;50.150;8.756;2023-07-30T16:10:16;22.20;99.90
17172;DHT22;8701;50.150;8.756;2023-07-30T16:14:19;22.10;99.90
17172;DHT22;8701;50.150;8.756;2023-07-30T16:18:23;22.00;99.90
17172;DHT22;8701;50.150;8.756;2023-07-30T16:22:25;22.00;99.90
17172;DHT22;8701;50.150;8.756;2023-07-30T16:26:27;21.90;99.90
17172;DHT22;8701;50.150;8.756;2023-07-30T16:30:31;21.90;99.90
17172;DHT22;8701;50.150;8.756;2023-07-30T16:34:33;21.80;99.90
17172;DHT22;8701;50.150;8.756;2023-07-30T16:38:35;21.90;99.90
17172;DHT22;8701;50.150;8.756;2023-07-30T16:42:38;21.90;99.90
17172;DHT22;8701;50.150;8.756;2023-07-30T16:46:41;21.80;99.90
17172;DHT22;8701;50.150;8.756;2023-07-30T16:50:47;21.80;99.90
17172;DHT22;8701;50.150;8.756;2023-07-30T16:54:49;21.80;99.90
17172;DHT22;8701;50.150;8.756;2023-07-30T16:58:51;21.70;99.90
17172;DHT22;8701;50.150;8.756;2023-07-30T17:02:55;21.60;99.90
17172;DHT22;8701;50.150;8.756;2023-07-30T17:06:57;21.60;99.90
17172;DHT22;8701;50.150;8.756;2023-07-30T17:11:03;21.60;99.90
17172;DHT22;8701;50.150;8.756;2023-07-30T17:15:07;21.60;99.90
17172;DHT22;8701;50.150;8.756;2023-07-30T17:19:10;21.60;99.90
17172;DHT22;8701;50.150;8.756;2023-07-30T17:23:13;21.60;99.90
17172;DHT22;8701;50.150;8.756;2023-07-30T17:27:15;21.60;99.90
17172;DHT22;8701;50.150;8.756;2023-07-30T17:31:17;21.50;99.90
17172;DHT22;8701;50.150;8.756;2023-07-30T17:35:21;21.50;99.90
17172;DHT22;8701;50.150;8.756;2023-07-30T17:39:23;21.40;99.90
17172;DHT22;8701;50.150;8.756;2023-07-30T17:43:25;21.40;99.90
17172;DHT22;8701;50.150;8.756;2023-07-30T17:47:27;21.40;99.90
17172;DHT22;8701;50.150;8.756;2023-07-30T17:51:31;21.30;99.90
17172;DHT22;8701;50.150;8.756;2023-07-30T17:55:33;21.30;99.90
17172;DHT22;8701;50.150;8.756;2023-07-30T17:59:36;21.20;99.90
17172;DHT22;8701;50.150;8.756;2023-07-30T18:03:38;21.20;99.90
17172;DHT22;8701;50.150;8.756;2023-07-30T18:07:41;21.20;99.90
17172;DHT22;8701;50.150;8.756;2023-07-30T18:11:44;21.20;99.90
17172;DHT22;8701;50.150;8.756;2023-07-30T18:15:46;21.10;99.90
17172;DHT22;8701;50.150;8.756;2023-07-30T18:19:48;21.10;99.90
17172;DHT22;8701;50.150;8.756;2023-07-30T18:23:52;21.10;99.90
17172;DHT22;8701;50.150;8.756;2023-07-30T18:27:54;21.00;99.90
17172;DHT22;8701;50.150;8.756;2023-07-30T18:32:04;21.00;99.90
17172;DHT22;8701;50.150;8.756;2023-07-30T18:36:07;20.90;99.90
17172;DHT22;8701;50.150;8.756;2023-07-30T18:40:11;20.90;99.90
17172;DHT22;8701;50.150;8.756;2023-07-30T18:44:13;20.80;99.90
17172;DHT22;8701;50.150;8.756;2023-07-30T18:48:15;20.80;99.90
17172;DHT22;8701;50.150;8.756;2023-07-30T18:52:20;20.80;99.90
17172;DHT22;8701;50.150;8.756;2023-07-30T18:56:23;20.70;99.90
17172;DHT22;8701;50.150;8.756;2023-07-30T19:00:26;20.60;99.90
17172;DHT22;8701;50.150;8.756;2023-07-30T19:04:28;20.60;99.90
17172;DHT22;8701;50.150;8.756;2023-07-30T19:08:30;20.50;99.90
17172;DHT22;8701;50.150;8.756;2023-07-30T19:12:34;20.50;99.90
17172;DHT22;8701;50.150;8.756;2023-07-30T19:16:36;20.40;99.90
17172;DHT22;8701;50.150;8.756;2023-07-30T19:20:39;20.40;99.90
17172;DHT22;8701;50.150;8.756;2023-07-30T19:24:41;20.40;99.90
17172;DHT22;8701;50.150;8.756;2023-07-30T19:28:44;20.30;99.90
17172;DHT22;8701;50.150;8.756;2023-07-30T19:32:47;20.30;99.90
17172;DHT22;8701;50.150;8.756;2023-07-30T19:36:49;20.40;99.90
17172;DHT22;8701;50.150;8.756;2023-07-30T19:40:52;20.40;99.90
17172;DHT22;8701;50.150;8.756;2023-07-30T19:44:57;20.40;99.90
17172;DHT22;8701;50.150;8.756;2023-07-30T19:48:59;20.40;99.90
17172;DHT22;8701;50.150;8.756;2023-07-30T19:53:02;20.40;99.90
17172;DHT22;8701;50.150;8.756;2023-07-30T19:57:04;20.40;99.90
17172;DHT22;8701;50.150;8.756;2023-07-30T20:01:08;20.30;99.90
17172;DHT22;8701;50.150;8.756;2023-07-30T20:05:10;20.30;99.90
17172;DHT22;8701;50.150;8.756;2023-07-30T20:09:15;20.30;99.90
17172;DHT22;8701;50.150;8.756;2023-07-30T20:13:17;20.20;99.90
17172;DHT22;8701;50.150;8.756;2023-07-30T20:17:21;20.20;99.90
17172;DHT22;8701;50.150;8.756;2023-07-30T20:21:23;20.20;99.90
17172;DHT22;8701;50.150;8.756;2023-07-30T20:25:25;20.20;99.90
17172;DHT22;8701;50.150;8.756;2023-07-30T20:29:27;20.10;99.90
17172;DHT22;8701;50.150;8.756;2023-07-30T20:33:31;20.10;99.90
17172;DHT22;8701;50.150;8.756;2023-07-30T20:37:34;20.10;99.90
17172;DHT22;8701;50.150;8.756;2023-07-30T20:41:36;20.10;99.90
17172;DHT22;8701;50.150;8.756;2023-07-30T20:45:38;20.10;99.90
17172;DHT22;8701;50.150;8.756;2023-07-30T20:49:42;20.10;99.90
17172;DHT22;8701;50.150;8.756;2023-07-30T20:53:44;20.10;99.90
17172;DHT22;8701;50.150;8.756;2023-07-30T20:57:47;20.10;99.90
17172;DHT22;8701;50.150;8.756;2023-07-30T21:01:49;20.10;99.90
17172;DHT22;8701;50.150;8.756;2023-07-30T21:05:52;20.10;99.90
17172;DHT22;8701;50.150;8.756;2023-07-30T21:09:55;20.10;99.90
17172;DHT22;8701;50.150;8.756;2023-07-30T21:13:57;20.00;99.90
17172;DHT22;8701;50.150;8.756;2023-07-30T21:17:59;20.00;99.90
17172;DHT22;8701;50.150;8.756;2023-07-30T21:22:03;20.00;99.90
17172;DHT22;8701;50.150;8.756;2023-07-30T21:26:05;20.00;99.90
17172;DHT22;8701;50.150;8.756;2023-07-30T21:30:08;20.00;99.90
17172;DHT22;8701;50.150;8.756;2023-07-30T21:34:10;19.90;99.90
17172;DHT22;8701;50.150;8.756;2023-07-30T21:38:14;19.90;99.90
17172;DHT22;8701;50.150;8.756;2023-07-30T21:42:16;19.90;99.90
17172;DHT22;8701;50.150;8.756;2023-07-30T21:46:18;19.80;99.90
17172;DHT22;8701;50.150;8.756;2023-07-30T21:50:20;19.90;99.90
17172;DHT22;8701;50.150;8.756;2023-07-30T21:54:24;19.90;99.90
17172;DHT22;8701;50.150;8.756;2023-07-30T21:58:26;19.90;99.90
17172;DHT22;8701;50.150;8.756;2023-07-30T22:02:28;19.80;99.90
17172;DHT22;8701;50.150;8.756;2023-07-30T22:06:30;19.80;99.90
17172;DHT22;8701;50.150;8.756;2023-07-30T22:10:39;19.80;99.90
17172;DHT22;8701;50.150;8.756;2023-07-30T22:14:41;19.80;99.90
17172;DHT22;8701;50.150;8.756;2023-07-30T22:18:43;19.80;99.90
17172;DHT22;8701;50.150;8.756;2023-07-30T22:22:46;19.80;99.90
17172;DHT22;8701;50.150;8.756;2023-07-30T22:26:49;19.70;99.90
17172;DHT22;8701;50.150;8.756;2023-07-30T22:30:52;19.70;99.90
17172;DHT22;8701;50.150;8.756;2023-07-30T22:34:54;19.70;99.90
17172;DHT22;8701;50.150;8.756;2023-07-30T22:38:57;19.70;99.90
17172;DHT22;8701;50.150;8.756;2023-07-30T22:43:01;19.70;99.90
17172;DHT22;8701;50.150;8.756;2023-07-30T22:47:03;19.60;99.90
17172;DHT22;8701;50.150;8.756;2023-07-30T22:51:06;19.60;99.90
17172;DHT22;8701;50.150;8.756;2023-07-30T22:55:08;19.60;99.90
17172;DHT22;8701;50.150;8.756;2023-07-30T22:59:12;19.50;99.90
17172;DHT22;8701;50.150;8.756;2023-07-30T23:03:14;19.40;99.90
17172;DHT22;8701;50.150;8.756;2023-07-30T23:07:16;19.40;99.90
17172;DHT22;8701;50.150;8.756;2023-07-30T23:11:18;19.50;99.90
17172;DHT22;8701;50.150;8.756;2023-07-30T23:15:22;19.40;99.90
17172;DHT22;8701;50.150;8.756;2023-07-30T23:19:24;19.40;99.90
17172;DHT22;8701;50.150;8.756;2023-07-30T23:23:27;19.40;99.90
17172;DHT22;8701;50.150;8.756;2023-07-30T23:27:29;19.20;99.90
17172;DHT22;8701;50.150;8.756;2023-07-30T23:31:32;19.40;99.90
17172;DHT22;8701;50.150;8.756;2023-07-30T23:35:35;19.40;99.90
17172;DHT22;8701;50.150;8.756;2023-07-30T23:39:37;19.40;99.90
17172;DHT22;8701;50.150;8.756;2023-07-30T23:43:39;19.30;99.90
17172;DHT22;8701;50.150;8.756;2023-07-30T23:47:43;19.20;99.90
17172;DHT22;8701;50.150;8.756;2023-07-30T23:51:46;19.10;99.90
17172;DHT22;8701;50.150;8.756;2023-07-30T23:55:48;19.20;99.90
17172;DHT22;8701;50.150;8.756;2023-07-30T23:59:50;19.20;99.90
